sensor_id;sensor_type;location;lat;lon;timestamp;P1;durP1;ratioP1;P2;durP2;ratioP2
16115;SDS011;8162;47.104;15.432;2022-11-06T00:00:17;2.93;;;1.70;;
16115;SDS011;8162;47.104;15.432;2022-11-06T00:02:43;2.47;;;1.67;;
16115;SDS011;8162;47.104;15.432;2022-11-06T00:05:10;2.77;;;1.60;;
16115;SDS011;8162;47.104;15.432;2022-11-06T00:07:54;1.70;;;1.33;;
16115;SDS011;8162;47.104;15.432;2022-11-06T00:10:20;1.90;;;1.80;;
16115;SDS011;8162;47.104;15.432;2022-11-06T00:12:46;1.50;;;1.40;;
16115;SDS011;8162;47.104;15.432;2022-11-06T00:15:12;1.83;;;1.60;;
16115;SDS011;8162;47.104;15.432;2022-11-06T00:17:38;1.93;;;1.40;;
16115;SDS011;8162;47.104;15.432;2022-11-06T00:20:05;1.60;;;1.50;;
16115;SDS011;8162;47.104;15.432;2022-11-06T00:22:31;1.70;;;1.60;;
16115;SDS011;8162;47.104;15.432;2022-11-06T00:24:58;1.50;;;1.40;;
16115;SDS011;8162;47.104;15.432;2022-11-06T00:27:24;2.50;;;1.50;;
16115;SDS011;8162;47.104;15.432;2022-11-06T00:29:49;2.17;;;1.70;;
16115;SDS011;8162;47.104;15.432;2022-11-06T00:32:15;2.00;;;1.70;;
16115;SDS011;8162;47.104;15.432;2022-11-06T00:34:41;1.60;;;1.50;;
16115;SDS011;8162;47.104;15.432;2022-11-06T00:37:06;2.03;;;1.80;;
16115;SDS011;8162;47.104;15.432;2022-11-06T00:39:32;2.93;;;1.40;;
16115;SDS011;8162;47.104;15.432;2022-11-06T00:41:57;1.63;;;1.53;;
16115;SDS011;8162;47.104;15.432;2022-11-06T00:44:23;2.17;;;1.97;;
16115;SDS011;8162;47.104;15.432;2022-11-06T00:46:49;2.43;;;2.00;;
16115;SDS011;8162;47.104;15.432;2022-11-06T00:49:14;2.33;;;1.77;;
16115;SDS011;8162;47.104;15.432;2022-11-06T00:51:40;2.83;;;1.80;;
16115;SDS011;8162;47.104;15.432;2022-11-06T00:54:08;1.87;;;1.73;;
16115;SDS011;8162;47.104;15.432;2022-11-06T00:56:35;4.27;;;1.83;;
16115;SDS011;8162;47.104;15.432;2022-11-06T00:59:02;2.17;;;1.47;;
16115;SDS011;8162;47.104;15.432;2022-11-06T01:01:30;2.17;;;1.90;;
16115;SDS011;8162;47.104;15.432;2022-11-06T01:04:04;2.60;;;1.73;;
16115;SDS011;8162;47.104;15.432;2022-11-06T01:06:36;3.03;;;2.20;;
16115;SDS011;8162;47.104;15.432;2022-11-06T01:09:04;4.00;;;2.00;;
16115;SDS011;8162;47.104;15.432;2022-11-06T01:11:31;3.00;;;2.10;;
16115;SDS011;8162;47.104;15.432;2022-11-06T01:13:59;2.80;;;1.80;;
16115;SDS011;8162;47.104;15.432;2022-11-06T01:16:26;7.37;;;1.83;;
16115;SDS011;8162;47.104;15.432;2022-11-06T01:18:53;2.03;;;1.60;;
16115;SDS011;8162;47.104;15.432;2022-11-06T01:21:21;2.30;;;2.10;;
16115;SDS011;8162;47.104;15.432;2022-11-06T01:23:46;2.73;;;2.10;;
16115;SDS011;8162;47.104;15.432;2022-11-06T01:26:17;3.30;;;1.87;;
16115;SDS011;8162;47.104;15.432;2022-11-06T01:28:43;2.47;;;1.67;;
16115;SDS011;8162;47.104;15.432;2022-11-06T01:31:09;1.80;;;1.40;;
16115;SDS011;8162;47.104;15.432;2022-11-06T01:33:37;2.10;;;1.43;;
16115;SDS011;8162;47.104;15.432;2022-11-06T01:36:03;2.67;;;1.90;;
16115;SDS011;8162;47.104;15.432;2022-11-06T01:38:29;1.30;;;1.20;;
16115;SDS011;8162;47.104;15.432;2022-11-06T01:40:55;2.00;;;1.50;;
16115;SDS011;8162;47.104;15.432;2022-11-06T01:44:04;2.33;;;1.50;;
16115;SDS011;8162;47.104;15.432;2022-11-06T01:46:10;1.40;;;1.30;;
16115;SDS011;8162;47.104;15.432;2022-11-06T01:48:36;2.33;;;1.50;;
16115;SDS011;8162;47.104;15.432;2022-11-06T01:51:03;1.30;;;1.20;;
16115;SDS011;8162;47.104;15.432;2022-11-06T01:53:30;1.63;;;1.40;;
16115;SDS011;8162;47.104;15.432;2022-11-06T01:55:57;1.50;;;1.40;;
16115;SDS011;8162;47.104;15.432;2022-11-06T01:58:26;1.53;;;1.00;;
16115;SDS011;8162;47.104;15.432;2022-11-06T02:00:54;2.20;;;1.40;;
16115;SDS011;8162;47.104;15.432;2022-11-06T02:03:20;1.40;;;1.17;;
16115;SDS011;8162;47.104;15.432;2022-11-06T02:05:46;3.27;;;1.20;;
16115;SDS011;8162;47.104;15.432;2022-11-06T02:08:14;1.20;;;1.10;;
16115;SDS011;8162;47.104;15.432;2022-11-06T02:10:43;1.13;;;1.03;;
16115;SDS011;8162;47.104;15.432;2022-11-06T02:15:49;0.80;;;0.80;;
16115;SDS011;8162;47.104;15.432;2022-11-06T02:21:25;1.10;;;1.00;;
16115;SDS011;8162;47.104;15.432;2022-11-06T02:27:09;1.40;;;1.30;;
16115;SDS011;8162;47.104;15.432;2022-11-06T02:29:42;1.63;;;0.97;;
16115;SDS011;8162;47.104;15.432;2022-11-06T02:32:16;1.77;;;0.97;;
16115;SDS011;8162;47.104;15.432;2022-11-06T02:34:55;1.77;;;0.90;;
16115;SDS011;8162;47.104;15.432;2022-11-06T02:37:27;0.97;;;0.97;;
16115;SDS011;8162;47.104;15.432;2022-11-06T02:39:57;1.03;;;0.90;;
16115;SDS011;8162;47.104;15.432;2022-11-06T02:42:26;1.17;;;1.07;;
16115;SDS011;8162;47.104;15.432;2022-11-06T02:44:54;1.10;;;1.00;;
16115;SDS011;8162;47.104;15.432;2022-11-06T02:47:22;3.17;;;1.00;;
16115;SDS011;8162;47.104;15.432;2022-11-06T02:49:54;0.90;;;0.87;;
16115;SDS011;8162;47.104;15.432;2022-11-06T02:52:33;2.13;;;1.10;;
16115;SDS011;8162;47.104;15.432;2022-11-06T02:55:11;1.97;;;1.17;;
16115;SDS011;8162;47.104;15.432;2022-11-06T02:57:42;1.53;;;1.10;;
16115;SDS011;8162;47.104;15.432;2022-11-06T03:00:12;1.03;;;0.90;;
16115;SDS011;8162;47.104;15.432;2022-11-06T03:02:45;2.47;;;1.10;;
16115;SDS011;8162;47.104;15.432;2022-11-06T03:05:26;4.47;;;1.23;;
16115;SDS011;8162;47.104;15.432;2022-11-06T03:10:32;1.20;;;1.10;;
16115;SDS011;8162;47.104;15.432;2022-11-06T03:13:26;1.23;;;1.13;;
16115;SDS011;8162;47.104;15.432;2022-11-06T03:19:06;1.03;;;0.93;;
16115;SDS011;8162;47.104;15.432;2022-11-06T03:24:18;1.20;;;1.10;;
16115;SDS011;8162;47.104;15.432;2022-11-06T03:26:54;1.17;;;1.03;;
16115;SDS011;8162;47.104;15.432;2022-11-06T03:29:58;2.53;;;1.17;;
16115;SDS011;8162;47.104;15.432;2022-11-06T03:32:27;1.10;;;0.90;;
16115;SDS011;8162;47.104;15.432;2022-11-06T03:38:11;1.03;;;1.00;;
16115;SDS011;8162;47.104;15.432;2022-11-06T03:40:42;1.30;;;1.20;;
16115;SDS011;8162;47.104;15.432;2022-11-06T03:43:14;1.30;;;1.20;;
16115;SDS011;8162;47.104;15.432;2022-11-06T03:45:42;1.40;;;1.10;;
16115;SDS011;8162;47.104;15.432;2022-11-06T03:48:31;2.73;;;1.30;;
16115;SDS011;8162;47.104;15.432;2022-11-06T03:53:51;2.67;;;1.13;;
16115;SDS011;8162;47.104;15.432;2022-11-06T03:56:21;1.20;;;1.10;;
16115;SDS011;8162;47.104;15.432;2022-11-06T03:59:00;3.13;;;1.20;;
16115;SDS011;8162;47.104;15.432;2022-11-06T04:01:31;2.00;;;1.03;;
16115;SDS011;8162;47.104;15.432;2022-11-06T04:04:08;1.60;;;1.50;;
16115;SDS011;8162;47.104;15.432;2022-11-06T04:07:16;1.27;;;1.10;;
16115;SDS011;8162;47.104;15.432;2022-11-06T04:09:48;0.90;;;0.90;;
16115;SDS011;8162;47.104;15.432;2022-11-06T04:12:37;1.13;;;1.00;;
16115;SDS011;8162;47.104;15.432;2022-11-06T04:15:30;0.90;;;0.90;;
16115;SDS011;8162;47.104;15.432;2022-11-06T04:17:58;1.63;;;1.13;;
16115;SDS011;8162;47.104;15.432;2022-11-06T04:20:24;1.63;;;1.27;;
16115;SDS011;8162;47.104;15.432;2022-11-06T04:23:25;1.13;;;1.03;;
16115;SDS011;8162;47.104;15.432;2022-11-06T04:26:04;1.43;;;1.30;;
16115;SDS011;8162;47.104;15.432;2022-11-06T04:31:31;3.40;;;1.07;;
16115;SDS011;8162;47.104;15.432;2022-11-06T04:37:05;1.30;;;1.00;;
16115;SDS011;8162;47.104;15.432;2022-11-06T04:42:28;1.30;;;1.20;;
16115;SDS011;8162;47.104;15.432;2022-11-06T04:45:07;3.20;;;1.50;;
16115;SDS011;8162;47.104;15.432;2022-11-06T04:47:41;1.60;;;1.20;;
16115;SDS011;8162;47.104;15.432;2022-11-06T04:50:08;1.30;;;1.20;;
16115;SDS011;8162;47.104;15.432;2022-11-06T04:52:37;1.93;;;1.30;;
16115;SDS011;8162;47.104;15.432;2022-11-06T04:55:05;2.37;;;1.37;;
16115;SDS011;8162;47.104;15.432;2022-11-06T04:57:30;2.83;;;1.43;;
16115;SDS011;8162;47.104;15.432;2022-11-06T04:59:56;3.73;;;1.20;;
16115;SDS011;8162;47.104;15.432;2022-11-06T05:02:22;1.30;;;1.20;;
16115;SDS011;8162;47.104;15.432;2022-11-06T05:04:48;2.07;;;1.87;;
16115;SDS011;8162;47.104;15.432;2022-11-06T05:07:14;1.30;;;1.20;;
16115;SDS011;8162;47.104;15.432;2022-11-06T05:09:40;1.57;;;1.27;;
16115;SDS011;8162;47.104;15.432;2022-11-06T05:12:06;1.40;;;1.30;;
16115;SDS011;8162;47.104;15.432;2022-11-06T05:14:32;1.60;;;1.00;;
16115;SDS011;8162;47.104;15.432;2022-11-06T05:16:58;2.53;;;1.27;;
16115;SDS011;8162;47.104;15.432;2022-11-06T05:19:24;1.40;;;1.30;;
16115;SDS011;8162;47.104;15.432;2022-11-06T05:21:50;3.93;;;1.50;;
16115;SDS011;8162;47.104;15.432;2022-11-06T05:24:33;2.53;;;1.70;;
16115;SDS011;8162;47.104;15.432;2022-11-06T05:26:59;2.07;;;1.30;;
16115;SDS011;8162;47.104;15.432;2022-11-06T05:29:25;2.57;;;1.10;;
16115;SDS011;8162;47.104;15.432;2022-11-06T05:31:51;1.37;;;1.27;;
16115;SDS011;8162;47.104;15.432;2022-11-06T05:34:17;4.20;;;1.50;;
16115;SDS011;8162;47.104;15.432;2022-11-06T05:36:42;2.57;;;1.27;;
16115;SDS011;8162;47.104;15.432;2022-11-06T05:39:08;1.47;;;1.37;;
16115;SDS011;8162;47.104;15.432;2022-11-06T05:41:34;1.50;;;1.30;;
16115;SDS011;8162;47.104;15.432;2022-11-06T05:44:00;2.40;;;1.40;;
16115;SDS011;8162;47.104;15.432;2022-11-06T05:46:26;1.63;;;1.37;;
16115;SDS011;8162;47.104;15.432;2022-11-06T05:48:52;1.50;;;1.20;;
16115;SDS011;8162;47.104;15.432;2022-11-06T05:51:17;2.33;;;1.40;;
16115;SDS011;8162;47.104;15.432;2022-11-06T05:53:44;2.33;;;1.70;;
16115;SDS011;8162;47.104;15.432;2022-11-06T05:56:09;2.20;;;1.63;;
16115;SDS011;8162;47.104;15.432;2022-11-06T05:58:35;3.33;;;1.30;;
16115;SDS011;8162;47.104;15.432;2022-11-06T06:01:02;1.63;;;1.53;;
16115;SDS011;8162;47.104;15.432;2022-11-06T06:03:28;2.27;;;1.60;;
16115;SDS011;8162;47.104;15.432;2022-11-06T06:05:53;2.30;;;1.70;;
16115;SDS011;8162;47.104;15.432;2022-11-06T06:08:19;2.07;;;1.60;;
16115;SDS011;8162;47.104;15.432;2022-11-06T06:10:45;1.40;;;1.30;;
16115;SDS011;8162;47.104;15.432;2022-11-06T06:13:12;2.57;;;1.50;;
16115;SDS011;8162;47.104;15.432;2022-11-06T06:15:39;1.70;;;1.60;;
16115;SDS011;8162;47.104;15.432;2022-11-06T06:18:05;2.10;;;1.90;;
16115;SDS011;8162;47.104;15.432;2022-11-06T06:20:32;5.63;;;1.90;;
16115;SDS011;8162;47.104;15.432;2022-11-06T06:22:58;1.67;;;1.43;;
16115;SDS011;8162;47.104;15.432;2022-11-06T06:25:24;2.83;;;1.83;;
16115;SDS011;8162;47.104;15.432;2022-11-06T06:27:51;3.30;;;1.70;;
16115;SDS011;8162;47.104;15.432;2022-11-06T06:30:17;2.00;;;1.80;;
16115;SDS011;8162;47.104;15.432;2022-11-06T06:32:43;2.13;;;1.37;;
16115;SDS011;8162;47.104;15.432;2022-11-06T06:35:09;2.20;;;2.00;;
16115;SDS011;8162;47.104;15.432;2022-11-06T06:37:35;2.77;;;2.17;;
16115;SDS011;8162;47.104;15.432;2022-11-06T06:40:01;2.87;;;1.70;;
16115;SDS011;8162;47.104;15.432;2022-11-06T06:42:27;2.17;;;1.97;;
16115;SDS011;8162;47.104;15.432;2022-11-06T06:44:53;2.20;;;2.00;;
16115;SDS011;8162;47.104;15.432;2022-11-06T06:47:19;2.77;;;1.80;;
16115;SDS011;8162;47.104;15.432;2022-11-06T06:49:44;2.50;;;2.30;;
16115;SDS011;8162;47.104;15.432;2022-11-06T06:52:10;3.73;;;2.33;;
16115;SDS011;8162;47.104;15.432;2022-11-06T06:54:36;3.73;;;2.23;;
16115;SDS011;8162;47.104;15.432;2022-11-06T06:57:04;2.60;;;2.40;;
16115;SDS011;8162;47.104;15.432;2022-11-06T06:59:31;4.10;;;2.47;;
16115;SDS011;8162;47.104;15.432;2022-11-06T07:01:57;2.87;;;2.57;;
16115;SDS011;8162;47.104;15.432;2022-11-06T07:04:22;4.93;;;3.03;;
16115;SDS011;8162;47.104;15.432;2022-11-06T07:06:48;3.60;;;2.60;;
16115;SDS011;8162;47.104;15.432;2022-11-06T07:09:16;3.60;;;2.50;;
16115;SDS011;8162;47.104;15.432;2022-11-06T07:11:42;7.83;;;3.20;;
16115;SDS011;8162;47.104;15.432;2022-11-06T07:14:08;3.20;;;2.83;;
16115;SDS011;8162;47.104;15.432;2022-11-06T07:16:34;2.67;;;2.47;;
16115;SDS011;8162;47.104;15.432;2022-11-06T07:19:00;3.20;;;2.80;;
16115;SDS011;8162;47.104;15.432;2022-11-06T07:21:26;5.37;;;4.00;;
16115;SDS011;8162;47.104;15.432;2022-11-06T07:23:51;6.83;;;3.80;;
16115;SDS011;8162;47.104;15.432;2022-11-06T07:26:17;4.47;;;3.87;;
16115;SDS011;8162;47.104;15.432;2022-11-06T07:28:43;7.70;;;3.80;;
16115;SDS011;8162;47.104;15.432;2022-11-06T07:31:08;4.77;;;3.57;;
16115;SDS011;8162;47.104;15.432;2022-11-06T07:33:36;4.53;;;3.60;;
16115;SDS011;8162;47.104;15.432;2022-11-06T07:36:10;3.97;;;3.07;;
16115;SDS011;8162;47.104;15.432;2022-11-06T07:38:37;3.70;;;3.37;;
16115;SDS011;8162;47.104;15.432;2022-11-06T07:41:05;4.83;;;3.03;;
16115;SDS011;8162;47.104;15.432;2022-11-06T07:43:33;3.33;;;2.67;;
16115;SDS011;8162;47.104;15.432;2022-11-06T07:46:00;5.43;;;3.20;;
16115;SDS011;8162;47.104;15.432;2022-11-06T07:48:27;4.60;;;2.80;;
16115;SDS011;8162;47.104;15.432;2022-11-06T07:50:54;3.97;;;2.90;;
16115;SDS011;8162;47.104;15.432;2022-11-06T07:53:20;3.30;;;2.73;;
16115;SDS011;8162;47.104;15.432;2022-11-06T07:55:49;4.17;;;3.20;;
16115;SDS011;8162;47.104;15.432;2022-11-06T07:58:16;3.60;;;2.83;;
16115;SDS011;8162;47.104;15.432;2022-11-06T08:00:46;4.10;;;3.13;;
16115;SDS011;8162;47.104;15.432;2022-11-06T08:03:13;4.77;;;3.33;;
16115;SDS011;8162;47.104;15.432;2022-11-06T08:05:39;4.50;;;2.97;;
16115;SDS011;8162;47.104;15.432;2022-11-06T08:08:04;3.80;;;2.87;;
16115;SDS011;8162;47.104;15.432;2022-11-06T08:10:30;4.13;;;2.93;;
16115;SDS011;8162;47.104;15.432;2022-11-06T08:12:58;4.20;;;3.30;;
16115;SDS011;8162;47.104;15.432;2022-11-06T08:15:24;4.33;;;3.33;;
16115;SDS011;8162;47.104;15.432;2022-11-06T08:17:50;4.03;;;3.00;;
16115;SDS011;8162;47.104;15.432;2022-11-06T08:20:15;4.70;;;3.33;;
16115;SDS011;8162;47.104;15.432;2022-11-06T08:22:41;3.33;;;3.03;;
16115;SDS011;8162;47.104;15.432;2022-11-06T08:25:07;3.30;;;2.93;;
16115;SDS011;8162;47.104;15.432;2022-11-06T08:27:33;3.43;;;2.50;;
16115;SDS011;8162;47.104;15.432;2022-11-06T08:29:59;3.63;;;3.07;;
16115;SDS011;8162;47.104;15.432;2022-11-06T08:32:24;4.17;;;3.20;;
16115;SDS011;8162;47.104;15.432;2022-11-06T08:34:51;3.03;;;2.67;;
16115;SDS011;8162;47.104;15.432;2022-11-06T08:37:17;4.17;;;2.97;;
16115;SDS011;8162;47.104;15.432;2022-11-06T08:39:42;3.77;;;3.13;;
16115;SDS011;8162;47.104;15.432;2022-11-06T08:42:08;3.00;;;2.70;;
16115;SDS011;8162;47.104;15.432;2022-11-06T08:44:34;3.00;;;2.70;;
16115;SDS011;8162;47.104;15.432;2022-11-06T08:47:00;3.83;;;2.70;;
16115;SDS011;8162;47.104;15.432;2022-11-06T08:49:25;5.40;;;3.10;;
16115;SDS011;8162;47.104;15.432;2022-11-06T08:51:51;2.70;;;2.30;;
16115;SDS011;8162;47.104;15.432;2022-11-06T08:54:17;3.33;;;2.37;;
16115;SDS011;8162;47.104;15.432;2022-11-06T08:56:43;3.17;;;2.60;;
16115;SDS011;8162;47.104;15.432;2022-11-06T08:59:09;2.90;;;2.33;;
16115;SDS011;8162;47.104;15.432;2022-11-06T09:01:34;3.83;;;2.80;;
16115;SDS011;8162;47.104;15.432;2022-11-06T09:04:00;4.83;;;2.67;;
16115;SDS011;8162;47.104;15.432;2022-11-06T09:06:26;3.03;;;2.47;;
16115;SDS011;8162;47.104;15.432;2022-11-06T09:08:51;2.53;;;2.30;;
16115;SDS011;8162;47.104;15.432;2022-11-06T09:11:17;2.73;;;2.30;;
16115;SDS011;8162;47.104;15.432;2022-11-06T09:13:43;2.53;;;2.03;;
16115;SDS011;8162;47.104;15.432;2022-11-06T09:16:08;3.47;;;2.17;;
16115;SDS011;8162;47.104;15.432;2022-11-06T09:18:34;3.03;;;2.20;;
16115;SDS011;8162;47.104;15.432;2022-11-06T09:20:59;2.60;;;2.00;;
16115;SDS011;8162;47.104;15.432;2022-11-06T09:23:25;1.87;;;1.77;;
16115;SDS011;8162;47.104;15.432;2022-11-06T09:25:51;2.53;;;2.00;;
16115;SDS011;8162;47.104;15.432;2022-11-06T09:28:16;2.63;;;1.97;;
16115;SDS011;8162;47.104;15.432;2022-11-06T09:30:42;3.07;;;2.10;;
16115;SDS011;8162;47.104;15.432;2022-11-06T09:33:08;3.43;;;2.00;;
16115;SDS011;8162;47.104;15.432;2022-11-06T09:35:33;2.97;;;2.37;;
16115;SDS011;8162;47.104;15.432;2022-11-06T09:38:00;3.10;;;2.27;;
16115;SDS011;8162;47.104;15.432;2022-11-06T09:43:07;3.07;;;2.43;;
16115;SDS011;8162;47.104;15.432;2022-11-06T09:45:43;3.40;;;2.20;;
16115;SDS011;8162;47.104;15.432;2022-11-06T09:48:23;2.37;;;1.83;;
16115;SDS011;8162;47.104;15.432;2022-11-06T09:53:47;2.73;;;2.47;;
16115;SDS011;8162;47.104;15.432;2022-11-06T09:56:19;2.23;;;2.03;;
16115;SDS011;8162;47.104;15.432;2022-11-06T09:58:49;2.83;;;1.97;;
16115;SDS011;8162;47.104;15.432;2022-11-06T10:01:22;1.87;;;1.50;;
16115;SDS011;8162;47.104;15.432;2022-11-06T10:03:59;1.97;;;1.60;;
16115;SDS011;8162;47.104;15.432;2022-11-06T10:06:28;2.20;;;2.00;;
16115;SDS011;8162;47.104;15.432;2022-11-06T10:09:00;2.90;;;1.90;;
16115;SDS011;8162;47.104;15.432;2022-11-06T10:11:46;2.20;;;2.00;;
16115;SDS011;8162;47.104;15.432;2022-11-06T10:17:00;4.57;;;1.90;;
16115;SDS011;8162;47.104;15.432;2022-11-06T10:27:19;1.63;;;1.53;;
16115;SDS011;8162;47.104;15.432;2022-11-06T10:40:21;4.47;;;2.37;;
16115;SDS011;8162;47.104;15.432;2022-11-06T10:42:54;2.67;;;2.20;;
16115;SDS011;8162;47.104;15.432;2022-11-06T10:45:40;3.23;;;2.43;;
16115;SDS011;8162;47.104;15.432;2022-11-06T10:48:22;2.53;;;2.33;;
16115;SDS011;8162;47.104;15.432;2022-11-06T10:59:20;2.90;;;2.17;;
16115;SDS011;8162;47.104;15.432;2022-11-06T11:01:45;4.60;;;2.53;;
16115;SDS011;8162;47.104;15.432;2022-11-06T11:04:11;2.77;;;1.90;;
16115;SDS011;8162;47.104;15.432;2022-11-06T11:06:37;2.87;;;2.07;;
16115;SDS011;8162;47.104;15.432;2022-11-06T11:09:27;2.87;;;2.13;;
16115;SDS011;8162;47.104;15.432;2022-11-06T11:11:54;2.23;;;1.87;;
16115;SDS011;8162;47.104;15.432;2022-11-06T11:14:21;2.30;;;2.00;;
16115;SDS011;8162;47.104;15.432;2022-11-06T11:16:49;3.97;;;2.50;;
16115;SDS011;8162;47.104;15.432;2022-11-06T11:24:56;1.77;;;1.67;;
16115;SDS011;8162;47.104;15.432;2022-11-06T11:27:28;2.73;;;1.70;;
16115;SDS011;8162;47.104;15.432;2022-11-06T11:29:56;2.47;;;1.60;;
16115;SDS011;8162;47.104;15.432;2022-11-06T11:32:22;1.70;;;1.60;;
16115;SDS011;8162;47.104;15.432;2022-11-06T11:34:52;3.77;;;2.00;;
16115;SDS011;8162;47.104;15.432;2022-11-06T11:37:23;2.40;;;2.20;;
16115;SDS011;8162;47.104;15.432;2022-11-06T11:42:55;1.70;;;1.40;;
16115;SDS011;8162;47.104;15.432;2022-11-06T11:46:00;1.97;;;1.70;;
16115;SDS011;8162;47.104;15.432;2022-11-06T11:48:27;2.30;;;1.70;;
16115;SDS011;8162;47.104;15.432;2022-11-06T11:51:23;2.60;;;1.77;;
16115;SDS011;8162;47.104;15.432;2022-11-06T11:53:50;1.73;;;1.60;;
16115;SDS011;8162;47.104;15.432;2022-11-06T11:56:19;1.63;;;1.40;;
16115;SDS011;8162;47.104;15.432;2022-11-06T11:58:50;2.33;;;1.60;;
16115;SDS011;8162;47.104;15.432;2022-11-06T12:01:19;2.80;;;2.10;;
16115;SDS011;8162;47.104;15.432;2022-11-06T12:04:48;1.83;;;1.60;;
16115;SDS011;8162;47.104;15.432;2022-11-06T12:07:00;1.50;;;1.40;;
16115;SDS011;8162;47.104;15.432;2022-11-06T12:09:28;1.53;;;1.20;;
16115;SDS011;8162;47.104;15.432;2022-11-06T12:11:59;2.47;;;1.50;;
16115;SDS011;8162;47.104;15.432;2022-11-06T12:14:33;2.67;;;1.80;;
16115;SDS011;8162;47.104;15.432;2022-11-06T12:19:36;2.77;;;1.63;;
16115;SDS011;8162;47.104;15.432;2022-11-06T12:22:09;1.73;;;1.30;;
16115;SDS011;8162;47.104;15.432;2022-11-06T12:25:00;2.00;;;1.70;;
16115;SDS011;8162;47.104;15.432;2022-11-06T12:27:40;1.97;;;1.77;;
16115;SDS011;8162;47.104;15.432;2022-11-06T12:30:18;2.53;;;1.53;;
16115;SDS011;8162;47.104;15.432;2022-11-06T12:35:24;1.50;;;1.40;;
16115;SDS011;8162;47.104;15.432;2022-11-06T12:43:41;1.17;;;1.07;;
16115;SDS011;8162;47.104;15.432;2022-11-06T12:51:42;2.27;;;1.50;;
16115;SDS011;8162;47.104;15.432;2022-11-06T13:04:54;1.93;;;1.50;;
16115;SDS011;8162;47.104;15.432;2022-11-06T13:08:23;2.80;;;1.40;;
16115;SDS011;8162;47.104;15.432;2022-11-06T13:13:56;3.33;;;1.67;;
16115;SDS011;8162;47.104;15.432;2022-11-06T13:16:28;2.23;;;1.40;;
16115;SDS011;8162;47.104;15.432;2022-11-06T13:25:06;1.50;;;1.40;;
16115;SDS011;8162;47.104;15.432;2022-11-06T13:30:12;2.83;;;1.50;;
16115;SDS011;8162;47.104;15.432;2022-11-06T13:32:41;1.70;;;1.40;;
16115;SDS011;8162;47.104;15.432;2022-11-06T13:35:14;1.43;;;1.33;;
16115;SDS011;8162;47.104;15.432;2022-11-06T13:37:44;1.60;;;1.50;;
16115;SDS011;8162;47.104;15.432;2022-11-06T13:40:20;2.37;;;1.60;;
16115;SDS011;8162;47.104;15.432;2022-11-06T13:43:27;1.83;;;1.33;;
16115;SDS011;8162;47.104;15.432;2022-11-06T13:46:09;2.03;;;1.47;;
16115;SDS011;8162;47.104;15.432;2022-11-06T13:53:47;1.40;;;1.20;;
16115;SDS011;8162;47.104;15.432;2022-11-06T14:07:12;1.20;;;1.10;;
16115;SDS011;8162;47.104;15.432;2022-11-06T14:09:41;3.20;;;1.50;;
16115;SDS011;8162;47.104;15.432;2022-11-06T14:12:12;1.37;;;0.93;;
16115;SDS011;8162;47.104;15.432;2022-11-06T14:14:43;4.00;;;1.50;;
16115;SDS011;8162;47.104;15.432;2022-11-06T14:17:11;0.93;;;0.93;;
16115;SDS011;8162;47.104;15.432;2022-11-06T14:20:03;1.40;;;1.10;;
16115;SDS011;8162;47.104;15.432;2022-11-06T14:22:34;1.17;;;1.07;;
16115;SDS011;8162;47.104;15.432;2022-11-06T14:32:54;2.47;;;1.10;;
16115;SDS011;8162;47.104;15.432;2022-11-06T14:38:12;1.20;;;0.90;;
16115;SDS011;8162;47.104;15.432;2022-11-06T14:40:41;1.40;;;1.00;;
16115;SDS011;8162;47.104;15.432;2022-11-06T14:46:05;1.23;;;1.13;;
16115;SDS011;8162;47.104;15.432;2022-11-06T14:48:50;1.57;;;1.10;;
16115;SDS011;8162;47.104;15.432;2022-11-06T14:51:26;3.37;;;1.30;;
16115;SDS011;8162;47.104;15.432;2022-11-06T14:53:55;1.30;;;1.20;;
16115;SDS011;8162;47.104;15.432;2022-11-06T14:56:28;2.37;;;1.33;;
16115;SDS011;8162;47.104;15.432;2022-11-06T14:58:57;1.20;;;1.03;;
16115;SDS011;8162;47.104;15.432;2022-11-06T15:01:28;1.37;;;1.07;;
16115;SDS011;8162;47.104;15.432;2022-11-06T15:06:53;1.60;;;1.20;;
16115;SDS011;8162;47.104;15.432;2022-11-06T15:12:03;1.53;;;1.40;;
16115;SDS011;8162;47.104;15.432;2022-11-06T15:17:02;3.93;;;1.67;;
16115;SDS011;8162;47.104;15.432;2022-11-06T15:19:38;3.17;;;1.60;;
16115;SDS011;8162;47.104;15.432;2022-11-06T15:22:12;2.47;;;1.50;;
16115;SDS011;8162;47.104;15.432;2022-11-06T15:25:02;1.93;;;1.27;;
16115;SDS011;8162;47.104;15.432;2022-11-06T15:28:16;3.53;;;1.43;;
16115;SDS011;8162;47.104;15.432;2022-11-06T15:31:19;1.50;;;1.23;;
16115;SDS011;8162;47.104;15.432;2022-11-06T15:36:33;2.73;;;1.50;;
16115;SDS011;8162;47.104;15.432;2022-11-06T15:41:56;1.50;;;1.40;;
16115;SDS011;8162;47.104;15.432;2022-11-06T15:44:22;1.60;;;1.50;;
16115;SDS011;8162;47.104;15.432;2022-11-06T15:46:56;1.97;;;1.40;;
16115;SDS011;8162;47.104;15.432;2022-11-06T15:49:23;2.93;;;1.30;;
16115;SDS011;8162;47.104;15.432;2022-11-06T15:51:51;1.57;;;1.43;;
16115;SDS011;8162;47.104;15.432;2022-11-06T15:54:30;2.90;;;1.40;;
16115;SDS011;8162;47.104;15.432;2022-11-06T15:57:01;1.30;;;1.20;;
16115;SDS011;8162;47.104;15.432;2022-11-06T15:59:31;2.73;;;1.83;;
16115;SDS011;8162;47.104;15.432;2022-11-06T16:01:57;4.10;;;2.10;;
16115;SDS011;8162;47.104;15.432;2022-11-06T16:04:29;2.53;;;2.27;;
16115;SDS011;8162;47.104;15.432;2022-11-06T16:06:56;2.83;;;1.97;;
16115;SDS011;8162;47.104;15.432;2022-11-06T16:09:26;2.83;;;2.07;;
16115;SDS011;8162;47.104;15.432;2022-11-06T16:11:52;4.20;;;2.50;;
16115;SDS011;8162;47.104;15.432;2022-11-06T16:14:19;3.83;;;2.40;;
16115;SDS011;8162;47.104;15.432;2022-11-06T16:16:46;4.43;;;3.60;;
16115;SDS011;8162;47.104;15.432;2022-11-06T16:19:30;5.73;;;3.83;;
16115;SDS011;8162;47.104;15.432;2022-11-06T16:24:38;3.87;;;3.03;;
16115;SDS011;8162;47.104;15.432;2022-11-06T16:27:07;4.10;;;2.73;;
16115;SDS011;8162;47.104;15.432;2022-11-06T16:29:34;4.53;;;3.57;;
16115;SDS011;8162;47.104;15.432;2022-11-06T16:32:05;5.57;;;3.50;;
16115;SDS011;8162;47.104;15.432;2022-11-06T16:34:37;5.53;;;3.97;;
16115;SDS011;8162;47.104;15.432;2022-11-06T16:37:50;6.13;;;4.50;;
16115;SDS011;8162;47.104;15.432;2022-11-06T16:40:00;6.00;;;4.30;;
16115;SDS011;8162;47.104;15.432;2022-11-06T16:42:35;6.00;;;5.10;;
16115;SDS011;8162;47.104;15.432;2022-11-06T16:45:21;8.93;;;4.10;;
16115;SDS011;8162;47.104;15.432;2022-11-06T16:50:50;8.53;;;4.40;;
16115;SDS011;8162;47.104;15.432;2022-11-06T16:53:21;9.67;;;4.57;;
16115;SDS011;8162;47.104;15.432;2022-11-06T16:58:26;6.57;;;4.40;;
16115;SDS011;8162;47.104;15.432;2022-11-06T17:01:04;5.63;;;4.10;;
16115;SDS011;8162;47.104;15.432;2022-11-06T17:03:38;5.30;;;4.10;;
16115;SDS011;8162;47.104;15.432;2022-11-06T17:06:17;4.70;;;4.20;;
16115;SDS011;8162;47.104;15.432;2022-11-06T17:08:55;5.73;;;4.37;;
16115;SDS011;8162;47.104;15.432;2022-11-06T17:11:25;6.00;;;3.90;;
16115;SDS011;8162;47.104;15.432;2022-11-06T17:13:51;4.97;;;3.90;;
16115;SDS011;8162;47.104;15.432;2022-11-06T17:16:20;4.40;;;4.00;;
16115;SDS011;8162;47.104;15.432;2022-11-06T17:18:47;7.03;;;4.50;;
16115;SDS011;8162;47.104;15.432;2022-11-06T17:21:15;5.50;;;3.83;;
16115;SDS011;8162;47.104;15.432;2022-11-06T17:23:44;6.90;;;4.33;;
16115;SDS011;8162;47.104;15.432;2022-11-06T17:26:16;4.80;;;3.73;;
16115;SDS011;8162;47.104;15.432;2022-11-06T17:28:52;8.43;;;4.50;;
16115;SDS011;8162;47.104;15.432;2022-11-06T17:31:19;3.67;;;3.10;;
16115;SDS011;8162;47.104;15.432;2022-11-06T17:33:48;3.43;;;3.13;;
16115;SDS011;8162;47.104;15.432;2022-11-06T17:36:17;4.37;;;3.37;;
16115;SDS011;8162;47.104;15.432;2022-11-06T17:38:49;3.33;;;2.40;;
16115;SDS011;8162;47.104;15.432;2022-11-06T17:41:16;3.47;;;2.80;;
16115;SDS011;8162;47.104;15.432;2022-11-06T17:43:54;3.33;;;2.70;;
16115;SDS011;8162;47.104;15.432;2022-11-06T17:46:25;3.93;;;2.50;;
16115;SDS011;8162;47.104;15.432;2022-11-06T17:48:57;4.57;;;3.07;;
16115;SDS011;8162;47.104;15.432;2022-11-06T17:51:23;3.63;;;2.83;;
16115;SDS011;8162;47.104;15.432;2022-11-06T17:54:09;4.87;;;2.67;;